Time;durP1;ratioP1;P1;durP2;ratioP2;P2;SDS_P1;SDS_P2;PMS_P1;PMS_P2;Temp;Humidity;BMP_temperature;BMP_pressure;BME280_temperature;BME280_humidity;BME280_pressure;Samples;Min_cycle;Max_cycle;Signal;HPM_P1;HPM_P2
2021/05/22 00:01:38;;;;;;;7.43;1.80;;;;;;;;;;143723;587;47022;-88
2021/05/22 00:04:10;;;;;;;7.22;1.80;;;;;;;;;;143728;591;46044;-87
2021/05/22 00:06:38;;;;;;;4.30;1.95;;;;;;;;;;143725;581;47020;-88
2021/05/22 00:09:06;;;;;;;4.82;1.52;;;;;;;;;;143728;614;46020;-88
2021/05/22 00:11:36;;;;;;;4.10;2.00;;;;;;;;;;143723;605;46022;-87
2021/05/22 00:14:16;;;;;;;2.15;1.52;;;;;;;;;;143728;572;46485;-87
2021/05/22 00:16:48;;;;;;;6.60;1.77;;;;;;;;;;143725;593;46045;-87
2021/05/22 00:19:21;;;;;;;3.90;1.70;;;;;;;;;;143727;572;46020;-85
2021/05/22 00:22:09;;;;;;;3.15;1.75;;;;;;;;;;143725;576;46022;-88
2021/05/22 00:24:45;;;;;;;5.55;1.80;;;;;;;;;;143725;590;46011;-86
2021/05/22 00:27:24;;;;;;;3.28;1.50;;;;;;;;;;143723;564;46020;-87
2021/05/22 00:29:56;;;;;;;4.12;3.40;;;;;;;;;;143728;567;46011;-89
2021/05/22 00:32:38;;;;;;;6.55;2.78;;;;;;;;;;143727;592;46023;-88
2021/05/22 00:35:10;;;;;;;7.53;4.68;;;;;;;;;;143728;622;46020;-88
2021/05/22 00:37:46;;;;;;;3.72;2.35;;;;;;;;;;143725;651;46020;-88
2021/05/22 00:40:23;;;;;;;11.27;4.53;;;;;;;;;;143723;590;47018;-89
2021/05/22 00:42:50;;;;;;;4.70;1.92;;;;;;;;;;143730;603;46022;-87
2021/05/22 00:45:26;;;;;;;7.57;2.15;;;;;;;;;;143730;564;46021;-87
2021/05/22 00:47:57;;;;;;;5.78;1.70;;;;;;;;;;143726;581;46018;-89
2021/05/22 00:50:39;;;;;;;7.05;1.75;;;;;;;;;;143725;594;46036;-87
2021/05/22 00:53:14;;;;;;;2.67;1.80;;;;;;;;;;143723;607;47021;-88
2021/05/22 00:55:45;;;;;;;3.35;1.90;;;;;;;;;;143728;570;46010;-88
2021/05/22 00:58:24;;;;;;;13.62;1.73;;;;;;;;;;143725;573;46012;-87
2021/05/22 01:00:56;;;;;;;4.37;2.65;;;;;;;;;;143727;610;47010;-87
2021/05/22 01:03:32;;;;;;;4.37;2.00;;;;;;;;;;143724;580;46022;-87
2021/05/22 01:06:29;;;;;;;9.02;2.75;;;;;;;;;;143725;576;46010;-89
2021/05/22 01:09:13;;;;;;;5.93;2.05;;;;;;;;;;143724;573;46029;-88
2021/05/22 01:11:57;;;;;;;5.05;2.30;;;;;;;;;;143726;625;46018;-88
2021/05/22 01:14:38;;;;;;;3.50;1.60;;;;;;;;;;143723;607;47050;-87
2021/05/22 01:17:16;;;;;;;5.25;2.20;;;;;;;;;;143724;608;46010;-88
2021/05/22 01:20:06;;;;;;;5.15;1.77;;;;;;;;;;143724;606;46020;-88
2021/05/22 01:22:38;;;;;;;4.55;1.70;;;;;;;;;;143727;607;46011;-89
2021/05/22 01:25:29;;;;;;;7.75;2.20;;;;;;;;;;143725;590;46023;-87
2021/05/22 01:28:06;;;;;;;3.87;2.08;;;;;;;;;;143730;576;46010;-88
2021/05/22 01:30:34;;;;;;;4.87;1.80;;;;;;;;;;143723;564;46021;-88
2021/05/22 01:33:04;;;;;;;15.00;2.17;;;;;;;;;;143728;637;46040;-88
2021/05/22 01:35:34;;;;;;;4.90;1.70;;;;;;;;;;143723;575;47022;-88
2021/05/22 01:38:04;;;;;;;5.20;1.87;;;;;;;;;;143725;583;46011;-89
2021/05/22 01:40:33;;;;;;;3.30;1.67;;;;;;;;;;143722;655;48020;-88
2021/05/22 01:43:01;;;;;;;3.53;1.42;;;;;;;;;;143726;563;46020;-89
2021/05/22 01:45:31;;;;;;;2.10;1.50;;;;;;;;;;143723;594;46022;-86
2021/05/22 01:48:06;;;;;;;3.65;2.15;;;;;;;;;;143728;589;46020;-88
2021/05/22 01:50:44;;;;;;;;;;;;;;;;;;;;;
2021/05/22 01:53:28;;;;;;;3.22;1.62;;;;;;;;;;143727;578;47018;-87
2021/05/22 01:56:18;;;;;;;4.07;1.48;;;;;;;;;;143725;604;46012;-88
2021/05/22 01:58:58;;;;;;;3.50;1.65;;;;;;;;;;143726;565;46018;-84
2021/05/22 02:01:27;;;;;;;5.57;1.50;;;;;;;;;;143724;594;46021;-89
2021/05/22 02:03:57;;;;;;;4.45;1.50;;;;;;;;;;143727;586;46020;-88
2021/05/22 02:06:26;;;;;;;2.83;1.75;;;;;;;;;;143725;563;47022;-87
2021/05/22 02:09:06;;;;;;;3.37;1.45;;;;;;;;;;143727;599;46010;-88
2021/05/22 02:11:51;;;;;;;1.45;1.10;;;;;;;;;;143719;637;49025;-88
2021/05/22 02:14:26;;;;;;;2.62;1.95;;;;;;;;;;143727;573;46020;-87
2021/05/22 02:17:02;;;;;;;1.83;1.30;;;;;;;;;;143722;582;47023;-85
2021/05/22 02:19:37;;;;;;;4.80;1.58;;;;;;;;;;143725;595;46020;-88
2021/05/22 02:22:21;;;;;;;2.35;1.30;;;;;;;;;;143728;585;46908;-89
2021/05/22 02:25:08;;;;;;;2.40;1.50;;;;;;;;;;143730;664;45020;-87
2021/05/22 02:28:08;;;;;;;;;;;;;;;;;;;;;
2021/05/22 02:31:00;;;;;;;2.83;1.75;;;;;;;;;;143733;585;45021;-87
2021/05/22 02:33:34;;;;;;;3.20;1.83;;;;;;;;;;143729;588;46020;-88
2021/05/22 02:36:14;;;;;;;4.97;1.35;;;;;;;;;;143731;569;45020;-88
2021/05/22 02:38:57;;;;;;;2.65;1.30;;;;;;;;;;143729;576;46021;-87
2021/05/22 02:41:35;;;;;;;3.25;2.35;;;;;;;;;;143730;604;46010;-87
2021/05/22 02:44:16;;;;;;;1.37;1.10;;;;;;;;;;143729;583;45021;-87
2021/05/22 02:46:48;;;;;;;3.45;2.42;;;;;;;;;;143729;629;46010;-87
2021/05/22 02:49:34;;;;;;;;;;;;;;;;;;;;;
2021/05/22 02:52:02;;;;;;;16.55;9.60;;;;;;;;;;143727;586;46010;-87
2021/05/22 02:54:39;;;;;;;14.63;7.57;;;;;;;;;;143729;615;46012;-87
2021/05/22 02:57:12;;;;;;;14.57;7.85;;;;;;;;;;143729;573;46010;-88
2021/05/22 03:00:14;;;;;;;16.83;7.35;;;;;;;;;;143723;575;47022;-87
2021/05/22 03:03:08;;;;;;;11.30;4.73;;;;;;;;;;143722;579;47020;-88
2021/05/22 03:05:46;;;;;;;13.15;6.15;;;;;;;;;;143723;564;47020;-88
2021/05/22 03:08:42;;;;;;;10.93;5.68;;;;;;;;;;143728;571;46010;-88
2021/05/22 03:11:26;;;;;;;13.57;6.37;;;;;;;;;;143726;594;46020;-88
2021/05/22 03:13:58;;;;;;;11.00;5.28;;;;;;;;;;143725;574;46021;-87
2021/05/22 03:16:34;;;;;;;12.00;6.03;;;;;;;;;;143721;594;47021;-88
2021/05/22 03:19:05;;;;;;;11.88;5.45;;;;;;;;;;143727;564;46020;-87
2021/05/22 03:21:41;;;;;;;10.15;5.20;;;;;;;;;;143727;580;46012;-88
2021/05/22 03:24:14;;;;;;;12.05;4.93;;;;;;;;;;143725;605;46047;-87
2021/05/22 03:26:52;;;;;;;8.00;3.95;;;;;;;;;;143729;625;46012;-87
2021/05/22 03:29:18;;;;;;;7.30;4.37;;;;;;;;;;143726;571;47019;-88
2021/05/22 03:31:51;;;;;;;5.03;3.20;;;;;;;;;;143725;603;47023;-88
2021/05/22 03:34:30;;;;;;;5.68;2.90;;;;;;;;;;143722;594;46020;-87
2021/05/22 03:37:00;;;;;;;9.35;2.90;;;;;;;;;;143727;594;46012;-87
2021/05/22 03:39:40;;;;;;;;;;;;;;;;;;;;;
2021/05/22 03:42:08;;;;;;;11.80;3.55;;;;;;;;;;143728;566;46014;-87
2021/05/22 03:44:39;;;;;;;5.10;3.15;;;;;;;;;;143726;581;46011;-87
2021/05/22 03:47:09;;;;;;;5.82;2.53;;;;;;;;;;143724;571;46020;-89
2021/05/22 03:50:05;;;;;;;3.00;2.20;;;;;;;;;;143729;634;46018;-87
2021/05/22 03:52:42;;;;;;;11.68;3.10;;;;;;;;;;143721;593;47022;-88
2021/05/22 03:55:14;;;;;;;10.93;3.03;;;;;;;;;;143724;588;46010;-86
2021/05/22 03:57:46;;;;;;;6.10;2.92;;;;;;;;;;143726;604;46020;-85
2021/05/22 04:00:15;;;;;;;4.62;3.35;;;;;;;;;;143725;588;46010;-86
2021/05/22 04:02:45;;;;;;;15.18;3.10;;;;;;;;;;143724;576;46022;-87
2021/05/22 04:05:20;;;;;;;10.00;3.40;;;;;;;;;;143725;635;46010;-87
2021/05/22 04:07:46;;;;;;;;;;;;;;;;;;143731;954;46020;-87
2021/05/22 04:10:24;;;;;;;8.15;2.85;;;;;;;;;;143733;585;46012;-88
2021/05/22 04:13:04;;;;;;;9.63;2.87;;;;;;;;;;143720;657;46911;-89
2021/05/22 04:15:31;;;;;;;4.62;3.10;;;;;;;;;;143726;598;46012;-87
2021/05/22 04:18:10;;;;;;;6.32;2.90;;;;;;;;;;143728;593;46014;-86
2021/05/22 04:20:37;;;;;;;6.20;3.03;;;;;;;;;;143726;602;46013;-88
2021/05/22 04:23:09;;;;;;;8.10;3.97;;;;;;;;;;143721;599;47023;-84
2021/05/22 04:25:37;;;;;;;13.25;4.97;;;;;;;;;;143725;592;46012;-88
2021/05/22 04:28:04;;;;;;;9.57;4.12;;;;;;;;;;143725;571;46020;-87
2021/05/22 04:30:31;;;;;;;17.30;4.18;;;;;;;;;;143725;576;46021;-87
2021/05/22 04:33:03;;;;;;;9.35;3.30;;;;;;;;;;143722;585;47020;-87
2021/05/22 04:35:53;;;;;;;10.05;3.55;;;;;;;;;;143726;607;46012;-86
2021/05/22 04:38:33;;;;;;;7.05;3.28;;;;;;;;;;143725;649;47020;-86
2021/05/22 04:41:09;;;;;;;5.95;2.78;;;;;;;;;;143726;615;46012;-88
2021/05/22 04:43:36;;;;;;;7.32;3.50;;;;;;;;;;143723;584;47022;-88
2021/05/22 04:46:03;;;;;;;10.30;2.72;;;;;;;;;;143720;573;47020;-86
2021/05/22 04:48:29;;;;;;;11.73;3.08;;;;;;;;;;143725;622;46014;-92
2021/05/22 04:50:56;;;;;;;11.55;3.25;;;;;;;;;;143725;592;46021;-89
2021/05/22 04:53:23;;;;;;;10.48;1.92;;;;;;;;;;143723;610;46023;-93
2021/05/22 04:55:50;;;;;;;5.82;2.45;;;;;;;;;;143726;605;46012;-89
2021/05/22 04:58:17;;;;;;;9.80;2.87;;;;;;;;;;143725;586;46020;-90
2021/05/22 05:00:43;;;;;;;11.63;2.50;;;;;;;;;;143728;572;46021;-90
2021/05/22 05:03:10;;;;;;;8.30;2.70;;;;;;;;;;143725;622;47022;-90
2021/05/22 05:05:37;;;;;;;8.02;3.37;;;;;;;;;;143725;574;46021;-89
2021/05/22 05:08:07;;;;;;;4.03;2.25;;;;;;;;;;143725;620;46021;-90
2021/05/22 05:10:36;;;;;;;4.18;2.30;;;;;;;;;;143725;624;47018;-90
2021/05/22 05:13:02;;;;;;;11.52;3.00;;;;;;;;;;143724;618;47022;-89
2021/05/22 05:15:29;;;;;;;8.45;2.83;;;;;;;;;;143725;602;46012;-89
2021/05/22 05:17:59;;;;;;;11.32;3.22;;;;;;;;;;143724;612;46020;-89
2021/05/22 05:20:26;;;;;;;4.47;2.83;;;;;;;;;;143725;564;46013;-90
2021/05/22 05:22:53;;;;;;;7.35;3.20;;;;;;;;;;143727;583;46014;-88
2021/05/22 05:25:20;;;;;;;8.32;2.72;;;;;;;;;;143726;604;46020;-88
2021/05/22 05:27:47;;;;;;;9.35;2.95;;;;;;;;;;143721;646;47020;-90
2021/05/22 05:30:14;;;;;;;15.18;2.70;;;;;;;;;;143726;609;46012;-90
2021/05/22 05:32:42;;;;;;;8.15;2.40;;;;;;;;;;143728;569;45037;-90
2021/05/22 05:35:10;;;;;;;6.93;2.37;;;;;;;;;;143724;745;46915;-93
2021/05/22 05:37:38;;;;;;;6.93;2.35;;;;;;;;;;143726;588;46021;-89
2021/05/22 05:40:06;;;;;;;13.48;2.70;;;;;;;;;;143727;566;46012;-89
2021/05/22 05:42:33;;;;;;;13.38;2.37;;;;;;;;;;143722;690;47020;-88
2021/05/22 05:45:01;;;;;;;10.85;2.15;;;;;;;;;;143723;676;47012;-88
2021/05/22 05:47:33;;;;;;;8.23;2.30;;;;;;;;;;143722;587;47020;-89
2021/05/22 05:50:00;;;;;;;6.07;2.35;;;;;;;;;;143727;606;46045;-87
2021/05/22 05:52:26;;;;;;;13.60;2.25;;;;;;;;;;143722;618;47021;-91
2021/05/22 05:54:53;;;;;;;12.95;2.97;;;;;;;;;;143728;636;46012;-90
2021/05/22 05:57:20;;;;;;;9.43;2.55;;;;;;;;;;143727;569;46014;-90
2021/05/22 05:59:46;;;;;;;10.07;2.70;;;;;;;;;;143727;657;47020;-95
2021/05/22 06:02:13;;;;;;;9.60;2.60;;;;;;;;;;143725;577;46022;-90
2021/05/22 06:04:39;;;;;;;11.38;2.50;;;;;;;;;;143726;572;46013;-90
2021/05/22 06:07:07;;;;;;;5.12;1.87;;;;;;;;;;143729;601;46045;-90
2021/05/22 06:09:34;;;;;;;3.22;1.98;;;;;;;;;;143728;589;46012;-89
2021/05/22 06:12:01;;;;;;;3.37;1.80;;;;;;;;;;143725;581;46021;-87
2021/05/22 06:14:31;;;;;;;6.32;1.85;;;;;;;;;;143727;601;46012;-89
2021/05/22 06:16:58;;;;;;;10.60;2.50;;;;;;;;;;143724;592;46020;-89
2021/05/22 06:19:25;;;;;;;7.32;1.75;;;;;;;;;;143727;569;46013;-87
2021/05/22 06:21:51;;;;;;;5.95;2.20;;;;;;;;;;143724;593;46023;-87
2021/05/22 06:24:18;;;;;;;7.75;2.58;;;;;;;;;;143726;592;46020;-87
2021/05/22 06:26:44;;;;;;;14.07;6.03;;;;;;;;;;143724;579;46047;-89
2021/05/22 06:29:13;;;;;;;10.80;2.90;;;;;;;;;;143728;606;46018;-89
2021/05/22 06:31:40;;;;;;;16.48;2.83;;;;;;;;;;143723;680;47022;-88
2021/05/22 06:34:07;;;;;;;11.35;3.22;;;;;;;;;;143726;576;46915;-88
2021/05/22 06:36:34;;;;;;;9.60;2.65;;;;;;;;;;143724;564;46021;-89
2021/05/22 06:39:01;;;;;;;10.05;2.65;;;;;;;;;;143727;630;46012;-89
2021/05/22 06:41:27;;;;;;;8.20;2.55;;;;;;;;;;143729;593;46022;-90
2021/05/22 06:43:54;;;;;;;3.47;2.03;;;;;;;;;;143726;640;46021;-90
2021/05/22 06:49:07;;;;;;;6.78;2.08;;;;;;;;;;143728;600;46020;-90
2021/05/22 06:51:33;;;;;;;8.75;2.28;;;;;;;;;;143728;609;47020;-88
2021/05/22 06:54:00;;;;;;;5.85;1.98;;;;;;;;;;143730;603;46012;-88
2021/05/22 06:56:26;;;;;;;5.57;1.62;;;;;;;;;;143728;626;46020;-87
2021/05/22 06:58:53;;;;;;;10.20;1.58;;;;;;;;;;143729;564;46021;-87
2021/05/22 07:01:21;;;;;;;3.40;1.70;;;;;;;;;;143723;582;47022;-89
2021/05/22 07:03:47;;;;;;;3.45;1.08;;;;;;;;;;143729;603;46012;-89
2021/05/22 07:06:14;;;;;;;6.72;1.37;;;;;;;;;;143725;583;46021;-89
2021/05/22 07:08:40;;;;;;;5.00;1.55;;;;;;;;;;143727;639;46012;-90
2021/05/22 07:11:08;;;;;;;6.03;1.73;;;;;;;;;;143728;569;46015;-90
2021/05/22 07:13:34;;;;;;;2.53;1.42;;;;;;;;;;143727;630;46012;-89
2021/05/22 07:16:01;;;;;;;3.15;1.60;;;;;;;;;;143724;633;46020;-89
2021/05/22 07:18:28;;;;;;;5.10;1.27;;;;;;;;;;143728;643;46019;-90
2021/05/22 07:20:55;;;;;;;5.28;1.50;;;;;;;;;;143724;613;47023;-90
2021/05/22 07:23:22;;;;;;;2.22;1.40;;;;;;;;;;143730;602;46012;-88
2021/05/22 07:25:49;;;;;;;10.02;1.65;;;;;;;;;;143727;619;45905;-89
2021/05/22 07:28:16;;;;;;;5.20;1.55;;;;;;;;;;143729;603;46013;-89
2021/05/22 07:30:43;;;;;;;7.85;2.08;;;;;;;;;;143724;577;47022;-89
2021/05/22 07:33:10;;;;;;;6.45;1.55;;;;;;;;;;143731;661;46012;-89
2021/05/22 07:35:37;;;;;;;3.47;1.48;;;;;;;;;;143725;648;46021;-89
2021/05/22 07:38:09;;;;;;;6.37;1.70;;;;;;;;;;143727;580;47020;-91
2021/05/22 07:40:36;;;;;;;6.07;2.23;;;;;;;;;;143724;590;47022;-88
2021/05/22 07:43:03;;;;;;;10.40;1.98;;;;;;;;;;143729;565;46012;-90
2021/05/22 07:45:30;;;;;;;3.90;1.55;;;;;;;;;;143727;644;46020;-91
2021/05/22 07:47:58;;;;;;;4.93;1.37;;;;;;;;;;143728;594;46012;-89
2021/05/22 07:50:25;;;;;;;5.90;1.30;;;;;;;;;;143724;567;47023;-90
2021/05/22 07:52:52;;;;;;;5.37;1.27;;;;;;;;;;143731;615;46012;-89
2021/05/22 07:55:18;;;;;;;3.22;1.08;;;;;;;;;;143726;581;46020;-88
2021/05/22 07:57:45;;;;;;;5.97;1.20;;;;;;;;;;143728;580;46013;-89
2021/05/22 08:00:13;;;;;;;8.70;1.27;;;;;;;;;;143726;640;46022;-88
2021/05/22 08:02:39;;;;;;;2.45;1.12;;;;;;;;;;143727;635;46012;-90
2021/05/22 08:05:07;;;;;;;5.68;1.55;;;;;;;;;;143724;569;46021;-90
2021/05/22 08:07:34;;;;;;;2.20;1.20;;;;;;;;;;143728;611;46012;-89
2021/05/22 08:10:01;;;;;;;3.62;1.50;;;;;;;;;;143727;652;46022;-89
2021/05/22 08:12:28;;;;;;;7.53;1.60;;;;;;;;;;143728;652;46013;-89
2021/05/22 08:14:55;;;;;;;5.65;1.27;;;;;;;;;;143723;644;47020;-89
2021/05/22 08:17:22;;;;;;;2.87;1.20;;;;;;;;;;143730;584;46019;-89
2021/05/22 08:19:49;;;;;;;4.60;1.17;;;;;;;;;;143726;607;47023;-88
2021/05/22 08:22:18;;;;;;;3.37;1.00;;;;;;;;;;143729;579;46020;-90
2021/05/22 08:24:45;;;;;;;5.30;1.70;;;;;;;;;;143723;578;47020;-89
2021/05/22 08:27:12;;;;;;;2.60;0.98;;;;;;;;;;143725;678;46012;-89
2021/05/22 08:29:39;;;;;;;2.70;0.98;;;;;;;;;;143725;584;47022;-87
2021/05/22 08:32:06;;;;;;;2.60;1.30;;;;;;;;;;143729;602;46012;-87
2021/05/22 08:34:33;;;;;;;11.57;1.37;;;;;;;;;;143726;604;46043;-89
2021/05/22 08:37:00;;;;;;;3.45;1.08;;;;;;;;;;143730;569;46012;-89
2021/05/22 08:39:27;;;;;;;3.65;1.10;;;;;;;;;;143724;640;47022;-88
2021/05/22 08:41:54;;;;;;;3.40;0.98;;;;;;;;;;143733;623;46049;-90
2021/05/22 08:44:20;;;;;;;4.85;1.55;;;;;;;;;;143727;590;47020;-87
2021/05/22 08:46:47;;;;;;;5.05;1.58;;;;;;;;;;143728;575;46012;-89
2021/05/22 08:49:15;;;;;;;2.67;1.10;;;;;;;;;;143723;620;47022;-87
2021/05/22 08:51:43;;;;;;;5.85;1.37;;;;;;;;;;143726;588;46020;-88
2021/05/22 08:54:10;;;;;;;2.83;1.37;;;;;;;;;;143728;582;46020;-89
2021/05/22 08:56:37;;;;;;;5.43;1.35;;;;;;;;;;143731;701;46013;-88
2021/05/22 08:59:04;;;;;;;1.65;1.10;;;;;;;;;;143726;606;46022;-89
2021/05/22 09:01:30;;;;;;;2.83;1.15;;;;;;;;;;143728;581;46014;-87
2021/05/22 09:03:57;;;;;;;5.80;1.17;;;;;;;;;;143725;604;47021;-88
2021/05/22 09:06:24;;;;;;;2.40;1.27;;;;;;;;;;143725;589;46020;-89
2021/05/22 09:09:02;;;;;;;5.72;1.33;;;;;;;;;;143728;576;47022;-89
2021/05/22 09:11:28;;;;;;;2.37;0.90;;;;;;;;;;143728;569;46013;-90
2021/05/22 09:13:55;;;;;;;3.00;1.65;;;;;;;;;;143725;572;47020;-87
2021/05/22 09:16:35;;;;;;;1.73;1.10;;;;;;;;;;143728;599;46012;-87
2021/05/22 09:19:02;;;;;;;3.95;1.05;;;;;;;;;;143726;604;46022;-90
2021/05/22 09:21:34;;;;;;;3.05;1.92;;;;;;;;;;143731;580;46012;-89
2021/05/22 09:24:01;;;;;;;3.42;2.12;;;;;;;;;;143727;570;46046;-89
2021/05/22 09:26:33;;;;;;;3.05;1.33;;;;;;;;;;143729;632;46012;-89
2021/05/22 09:29:01;;;;;;;3.83;2.10;;;;;;;;;;143725;594;47023;-89
2021/05/22 09:31:28;;;;;;;2.12;1.05;;;;;;;;;;143729;603;46012;-88
2021/05/22 09:34:03;;;;;;;5.25;1.37;;;;;;;;;;143728;573;46021;-90
2021/05/22 09:36:44;;;;;;;2.25;1.05;;;;;;;;;;143728;591;46012;-89
2021/05/22 09:39:18;;;;;;;1.48;0.80;;;;;;;;;;143727;604;47020;-88
2021/05/22 09:41:45;;;;;;;1.70;1.10;;;;;;;;;;143728;612;46014;-89
2021/05/22 09:44:17;;;;;;;1.75;1.15;;;;;;;;;;143724;608;47020;-89
2021/05/22 09:47:02;;;;;;;4.20;1.37;;;;;;;;;;143728;577;46020;-88
2021/05/22 09:49:34;;;;;;;6.12;1.65;;;;;;;;;;143724;589;47025;-89
2021/05/22 09:52:18;;;;;;;2.77;1.20;;;;;;;;;;143733;569;46012;-87
2021/05/22 09:54:56;;;;;;;5.68;1.23;;;;;;;;;;143724;586;47020;-90
2021/05/22 09:57:44;;;;;;;2.97;1.23;;;;;;;;;;143730;573;46021;-88
2021/05/22 10:00:23;;;;;;;2.97;1.25;;;;;;;;;;143725;587;47020;-90
2021/05/22 10:02:52;;;;;;;1.67;1.30;;;;;;;;;;143729;582;46013;-91
2021/05/22 10:05:33;;;;;;;3.40;1.70;;;;;;;;;;143729;564;46021;-88
2021/05/22 10:08:01;;;;;;;6.43;2.33;;;;;;;;;;143729;608;46012;-91
2021/05/22 10:10:48;;;;;;;13.02;9.35;;;;;;;;;;143727;586;46020;-90
2021/05/22 10:13:18;;;;;;;4.30;1.83;;;;;;;;;;143731;627;46012;-90
2021/05/22 10:15:47;;;;;;;3.55;1.58;;;;;;;;;;143727;603;46020;-88
2021/05/22 10:18:14;;;;;;;9.70;6.57;;;;;;;;;;143728;614;46020;-89
2021/05/22 10:20:41;;;;;;;5.43;3.80;;;;;;;;;;143724;580;47020;-88
2021/05/22 10:23:09;;;;;;;3.95;1.62;;;;;;;;;;143730;566;46012;-90
2021/05/22 10:25:36;;;;;;;5.62;1.60;;;;;;;;;;143723;629;47020;-91
2021/05/22 10:28:04;;;;;;;4.10;1.50;;;;;;;;;;143728;627;46012;-91
2021/05/22 10:30:31;;;;;;;5.57;1.60;;;;;;;;;;143725;572;47022;-90
2021/05/22 10:33:03;;;;;;;11.27;7.60;;;;;;;;;;143726;580;46021;-91
2021/05/22 10:35:40;;;;;;;20.35;15.30;;;;;;;;;;143725;633;46021;-93
2021/05/22 10:38:06;;;;;;;6.85;6.15;;;;;;;;;;143730;594;46020;-91
2021/05/22 10:40:51;;;;;;;14.45;12.77;;;;;;;;;;143725;569;46021;-91
2021/05/22 10:43:45;;;;;;;5.10;1.42;;;;;;;;;;143730;665;46012;-91
2021/05/22 10:46:13;;;;;;;2.12;1.45;;;;;;;;;;143726;577;47020;-88
2021/05/22 10:49:02;;;;;;;4.90;1.58;;;;;;;;;;143730;577;46012;-92
2021/05/22 10:51:36;;;;;;;3.87;1.25;;;;;;;;;;143731;636;46030;-91
2021/05/22 10:54:13;;;;;;;12.63;1.73;;;;;;;;;;143733;593;47021;-92
2021/05/22 10:57:07;;;;;;;5.15;1.98;;;;;;;;;;143726;588;47021;-92
2021/05/22 10:59:36;;;;;;;3.33;1.70;;;;;;;;;;143728;598;46012;-91
2021/05/22 11:02:22;;;;;;;7.93;1.40;;;;;;;;;;143729;567;47022;-91
2021/05/22 11:04:49;;;;;;;2.35;0.90;;;;;;;;;;143732;573;46012;-89
2021/05/22 11:07:19;;;;;;;3.22;1.60;;;;;;;;;;143733;591;47020;-92
2021/05/22 11:09:48;;;;;;;1.62;1.10;;;;;;;;;;143728;587;46013;-90
2021/05/22 11:12:45;;;;;;;2.10;1.02;;;;;;;;;;143727;641;47023;-92
2021/05/22 11:15:57;;;;;;;5.70;1.20;;;;;;;;;;143728;627;46020;-93
2021/05/22 11:19:03;;;;;;;1.77;0.85;;;;;;;;;;143726;574;47022;-92
2021/05/22 11:21:30;;;;;;;1.73;0.65;;;;;;;;;;143727;585;46012;-91
2021/05/22 11:24:05;;;;;;;8.52;1.20;;;;;;;;;;143729;647;46020;-91
2021/05/22 11:27:04;;;;;;;7.22;1.27;;;;;;;;;;143727;579;46012;-66
2021/05/22 11:29:51;;;;;;;8.32;1.35;;;;;;;;;;143725;563;46020;-66
2021/05/22 11:32:53;;;;;;;2.08;0.88;;;;;;;;;;143730;572;46012;-66
2021/05/22 11:35:48;;;;;;;3.58;0.98;;;;;;;;;;143724;582;47025;-66
2021/05/22 11:38:33;;;;;;;2.05;0.95;;;;;;;;;;143726;564;46012;-66
2021/05/22 11:41:05;;;;;;;2.03;0.93;;;;;;;;;;143724;569;47021;-65
2021/05/22 11:43:32;;;;;;;1.97;0.90;;;;;;;;;;143730;578;46012;-66
2021/05/22 11:46:04;;;;;;;7.47;1.52;;;;;;;;;;143726;582;47022;-66
2021/05/22 11:48:39;;;;;;;10.85;1.65;;;;;;;;;;143725;572;47020;-65
2021/05/22 11:51:13;;;;;;;5.30;1.60;;;;;;;;;;143726;564;46049;-67
2021/05/22 11:53:47;;;;;;;6.43;1.27;;;;;;;;;;143730;614;46012;-66
2021/05/22 11:56:15;;;;;;;1.55;1.00;;;;;;;;;;143724;635;47021;-66
2021/05/22 11:58:49;;;;;;;2.10;1.08;;;;;;;;;;143727;637;46020;-65
2021/05/22 12:01:38;;;;;;;2.42;1.00;;;;;;;;;;143724;644;46020;-65
2021/05/22 12:04:10;;;;;;;5.37;1.35;;;;;;;;;;143730;595;46021;-65
2021/05/22 12:06:41;;;;;;;1.55;0.90;;;;;;;;;;143725;645;46037;-67
2021/05/22 12:09:21;;;;;;;3.65;0.98;;;;;;;;;;143728;589;46020;-66
2021/05/22 12:12:05;;;;;;;6.57;0.70;;;;;;;;;;143725;564;46021;-65
2021/05/22 12:14:47;;;;;;;3.85;1.35;;;;;;;;;;143728;597;47012;-65
2021/05/22 12:17:16;;;;;;;3.55;1.15;;;;;;;;;;143725;581;46022;-65
2021/05/22 12:19:48;;;;;;;1.95;0.80;;;;;;;;;;143723;634;46012;-64
2021/05/22 12:22:16;;;;;;;3.35;0.95;;;;;;;;;;143724;581;46041;-67
2021/05/22 12:24:44;;;;;;;4.85;1.25;;;;;;;;;;143726;583;46021;-66
2021/05/22 12:27:16;;;;;;;2.95;0.95;;;;;;;;;;143724;576;46048;-66
2021/05/22 12:29:54;;;;;;;6.62;1.50;;;;;;;;;;143726;610;46020;-67
2021/05/22 12:32:21;;;;;;;1.80;0.80;;;;;;;;;;143726;597;46021;-66
2021/05/22 12:34:57;;;;;;;1.65;0.88;;;;;;;;;;143726;589;46012;-66
2021/05/22 12:37:23;;;;;;;4.68;1.12;;;;;;;;;;143723;563;46022;-65
2021/05/22 12:39:52;;;;;;;2.28;1.33;;;;;;;;;;143723;569;47013;-65
2021/05/22 12:42:27;;;;;;;2.25;1.00;;;;;;;;;;143723;606;46020;-65
2021/05/22 12:44:56;;;;;;;4.78;1.33;;;;;;;;;;143726;564;46012;-65
2021/05/22 12:47:34;;;;;;;2.33;0.75;;;;;;;;;;143724;585;46043;-66
2021/05/22 12:50:06;;;;;;;4.55;1.10;;;;;;;;;;143723;625;46020;-66
2021/05/22 12:52:49;;;;;;;2.92;0.65;;;;;;;;;;143722;580;47020;-65
2021/05/22 12:55:32;;;;;;;3.17;0.98;;;;;;;;;;143728;571;46021;-67
2021/05/22 12:58:07;;;;;;;2.10;1.00;;;;;;;;;;143721;577;47022;-67
2021/05/22 13:00:35;;;;;;;3.50;1.08;;;;;;;;;;143725;573;46012;-65
2021/05/22 13:03:02;;;;;;;2.35;1.10;;;;;;;;;;143723;619;46021;-67
2021/05/22 13:05:31;;;;;;;9.82;1.45;;;;;;;;;;143728;579;46012;-66
2021/05/22 13:08:05;;;;;;;4.43;1.20;;;;;;;;;;143724;567;46022;-66
2021/05/22 13:10:33;;;;;;;1.67;1.00;;;;;;;;;;143725;640;46012;-66
2021/05/22 13:13:19;;;;;;;7.00;1.67;;;;;;;;;;143725;585;46020;-65
2021/05/22 13:15:54;;;;;;;2.03;1.25;;;;;;;;;;143726;634;46012;-65
2021/05/22 13:18:39;;;;;;;1.52;0.90;;;;;;;;;;143723;597;47020;-66
2021/05/22 13:21:11;;;;;;;2.00;1.40;;;;;;;;;;143725;611;46914;-65
2021/05/22 13:23:42;;;;;;;2.37;1.80;;;;;;;;;;143724;629;47020;-66
2021/05/22 13:26:26;;;;;;;7.87;1.65;;;;;;;;;;143729;606;46012;-66
2021/05/22 13:28:55;;;;;;;3.25;1.25;;;;;;;;;;143725;637;46022;-66
2021/05/22 13:31:30;;;;;;;4.78;1.45;;;;;;;;;;143726;565;46013;-67
2021/05/22 13:34:05;;;;;;;3.62;1.75;;;;;;;;;;143726;576;46021;-66
2021/05/22 13:36:32;;;;;;;3.78;1.80;;;;;;;;;;143726;600;46012;-66
2021/05/22 13:38:59;;;;;;;2.30;1.00;;;;;;;;;;143723;593;47022;-66
2021/05/22 13:41:31;;;;;;;1.87;1.00;;;;;;;;;;143725;576;46012;-65
2021/05/22 13:43:57;;;;;;;5.62;1.98;;;;;;;;;;143723;585;46020;-65
2021/05/22 13:46:24;;;;;;;5.70;1.30;;;;;;;;;;143727;619;46012;-66
2021/05/22 13:48:50;;;;;;;4.12;1.20;;;;;;;;;;143725;570;46020;-67
2021/05/22 13:51:17;;;;;;;4.45;1.80;;;;;;;;;;143725;577;46012;-66
2021/05/22 13:53:44;;;;;;;4.65;1.20;;;;;;;;;;143722;602;47020;-65
2021/05/22 13:56:10;;;;;;;3.62;1.27;;;;;;;;;;143727;636;46012;-64
2021/05/22 13:58:37;;;;;;;4.43;1.48;;;;;;;;;;143722;597;47022;-66
2021/05/22 14:01:04;;;;;;;7.53;1.50;;;;;;;;;;143725;576;46013;-66
2021/05/22 14:03:30;;;;;;;2.20;1.17;;;;;;;;;;143723;596;46021;-65
2021/05/22 14:05:57;;;;;;;2.78;1.20;;;;;;;;;;143727;641;46012;-66
2021/05/22 14:08:23;;;;;;;23.35;2.30;;;;;;;;;;143725;595;46046;-66
2021/05/22 14:10:50;;;;;;;3.53;1.15;;;;;;;;;;143726;596;46012;-65
2021/05/22 14:13:16;;;;;;;4.00;1.02;;;;;;;;;;143723;587;46020;-65
2021/05/22 14:15:42;;;;;;;3.17;0.90;;;;;;;;;;143727;594;46020;-65
2021/05/22 14:18:09;;;;;;;3.85;1.20;;;;;;;;;;143723;609;47023;-65
2021/05/22 14:20:36;;;;;;;2.42;1.27;;;;;;;;;;143726;571;46012;-66
2021/05/22 14:23:02;;;;;;;4.50;1.10;;;;;;;;;;143723;600;46021;-66
2021/05/22 14:25:29;;;;;;;2.35;0.95;;;;;;;;;;143726;595;46012;-66
2021/05/22 14:27:55;;;;;;;7.78;1.27;;;;;;;;;;143724;573;46022;-66
2021/05/22 14:30:23;;;;;;;7.53;1.40;;;;;;;;;;143727;576;46012;-66
2021/05/22 14:32:49;;;;;;;4.07;1.15;;;;;;;;;;143722;597;47021;-66
2021/05/22 14:35:18;;;;;;;2.62;1.50;;;;;;;;;;143728;597;46020;-66
2021/05/22 14:37:45;;;;;;;9.85;1.67;;;;;;;;;;143724;631;46022;-67
2021/05/22 14:40:12;;;;;;;7.45;1.52;;;;;;;;;;143725;566;46012;-66
2021/05/22 14:42:39;;;;;;;4.43;0.93;;;;;;;;;;143724;581;47020;-66
2021/05/22 14:45:07;;;;;;;9.20;2.53;;;;;;;;;;143727;642;46013;-66
2021/05/22 14:47:33;;;;;;;1.30;0.95;;;;;;;;;;143724;624;47023;-66
2021/05/22 14:50:00;;;;;;;4.22;1.12;;;;;;;;;;143724;569;46012;-67
2021/05/22 14:52:26;;;;;;;2.60;1.12;;;;;;;;;;143721;596;47020;-66
2021/05/22 14:54:52;;;;;;;2.55;1.25;;;;;;;;;;143729;592;46012;-68
2021/05/22 14:57:19;;;;;;;4.57;1.30;;;;;;;;;;143721;613;47022;-66
2021/05/22 14:59:45;;;;;;;3.67;1.12;;;;;;;;;;143719;564;48915;-67
2021/05/22 15:02:12;;;;;;;4.90;1.20;;;;;;;;;;143723;598;46021;-66
2021/05/22 15:04:38;;;;;;;3.62;1.00;;;;;;;;;;143728;588;47012;-66
2021/05/22 15:07:05;;;;;;;3.15;1.20;;;;;;;;;;143722;565;47020;-66
2021/05/22 15:09:31;;;;;;;6.22;1.30;;;;;;;;;;143728;612;46012;-66
2021/05/22 15:11:57;;;;;;;3.22;1.45;;;;;;;;;;143724;680;46020;-66
2021/05/22 15:14:27;;;;;;;1.70;1.40;;;;;;;;;;143727;579;46013;-66
2021/05/22 15:16:53;;;;;;;5.65;1.37;;;;;;;;;;143721;581;47020;-66
2021/05/22 15:19:20;;;;;;;4.82;1.87;;;;;;;;;;143726;612;46020;-66